Terminal Aerodrome Forecast
Issued by NWS

Home | Current Version | Previous Version | Text Only | Print | Product List | Glossary On
Versions: 1 2 3 4 5 6 7 8 9 10 11 12 13 14 15 16 17 18 19 20 21 22 23
000
FTUS43 KFGF 201700
TAFBJI
TAF
KBJI 201720Z 2018/2118 12008KT P6SM BKN015
      TEMPO 2018/2019 BKN030
     FM201900 12008KT P6SM BKN035
      TEMPO 2019/2020 BKN030
     FM202100 12008KT P6SM SCT040
     FM210300 12005KT P6SM SCT250=

USA.gov is the U.S. government's official web portal to all federal, state and local government web resources and services.